sensor_id;sensor_type;location;lat;lon;timestamp;P1;durP1;ratioP1;P2;durP2;ratioP2
50900;SDS011;36879;51.416;6.678;2023-02-11T00:01:26;34.83;;;16.38;;
50900;SDS011;36879;51.416;6.678;2023-02-11T00:03:52;29.52;;;17.17;;
50900;SDS011;36879;51.416;6.678;2023-02-11T00:06:19;29.63;;;15.98;;
50900;SDS011;36879;51.416;6.678;2023-02-11T00:08:45;29.60;;;15.93;;
50900;SDS011;36879;51.416;6.678;2023-02-11T00:11:12;31.38;;;14.77;;
50900;SDS011;36879;51.416;6.678;2023-02-11T00:13:40;32.83;;;16.25;;
50900;SDS011;36879;51.416;6.678;2023-02-11T00:16:06;28.20;;;15.30;;
50900;SDS011;36879;51.416;6.678;2023-02-11T00:18:33;32.03;;;15.82;;
50900;SDS011;36879;51.416;6.678;2023-02-11T00:21:04;31.80;;;16.08;;
50900;SDS011;36879;51.416;6.678;2023-02-11T00:23:30;26.02;;;15.10;;
50900;SDS011;36879;51.416;6.678;2023-02-11T00:25:56;34.30;;;15.48;;
50900;SDS011;36879;51.416;6.678;2023-02-11T00:28:22;27.98;;;15.68;;
50900;SDS011;36879;51.416;6.678;2023-02-11T00:30:57;37.25;;;17.52;;
50900;SDS011;36879;51.416;6.678;2023-02-11T00:33:23;27.50;;;14.75;;
50900;SDS011;36879;51.416;6.678;2023-02-11T00:35:49;31.48;;;16.67;;
50900;SDS011;36879;51.416;6.678;2023-02-11T00:38:15;31.42;;;16.20;;
50900;SDS011;36879;51.416;6.678;2023-02-11T00:40:41;26.25;;;14.02;;
50900;SDS011;36879;51.416;6.678;2023-02-11T00:43:07;29.83;;;14.60;;
50900;SDS011;36879;51.416;6.678;2023-02-11T00:45:33;28.75;;;15.23;;
50900;SDS011;36879;51.416;6.678;2023-02-11T00:47:59;27.10;;;15.90;;
50900;SDS011;36879;51.416;6.678;2023-02-11T00:50:25;29.45;;;15.60;;
50900;SDS011;36879;51.416;6.678;2023-02-11T00:52:51;27.65;;;15.27;;
50900;SDS011;36879;51.416;6.678;2023-02-11T00:55:17;26.98;;;14.93;;
50900;SDS011;36879;51.416;6.678;2023-02-11T00:57:43;27.25;;;15.48;;
50900;SDS011;36879;51.416;6.678;2023-02-11T01:00:10;32.65;;;15.65;;
50900;SDS011;36879;51.416;6.678;2023-02-11T01:02:36;31.35;;;15.48;;
50900;SDS011;36879;51.416;6.678;2023-02-11T01:05:02;27.13;;;13.77;;
50900;SDS011;36879;51.416;6.678;2023-02-11T01:07:28;31.90;;;14.90;;
50900;SDS011;36879;51.416;6.678;2023-02-11T01:09:54;29.55;;;15.77;;
50900;SDS011;36879;51.416;6.678;2023-02-11T01:12:20;35.45;;;15.07;;
50900;SDS011;36879;51.416;6.678;2023-02-11T01:14:46;29.73;;;15.68;;
50900;SDS011;36879;51.416;6.678;2023-02-11T01:17:13;25.80;;;13.90;;
50900;SDS011;36879;51.416;6.678;2023-02-11T01:19:39;26.10;;;14.85;;
50900;SDS011;36879;51.416;6.678;2023-02-11T01:22:04;25.48;;;14.55;;
50900;SDS011;36879;51.416;6.678;2023-02-11T01:24:30;28.60;;;14.50;;
50900;SDS011;36879;51.416;6.678;2023-02-11T01:26:56;25.35;;;13.23;;
50900;SDS011;36879;51.416;6.678;2023-02-11T01:29:22;25.98;;;13.68;;
50900;SDS011;36879;51.416;6.678;2023-02-11T01:31:48;29.77;;;14.65;;
50900;SDS011;36879;51.416;6.678;2023-02-11T01:34:15;25.48;;;14.13;;
50900;SDS011;36879;51.416;6.678;2023-02-11T01:36:41;27.40;;;14.15;;
50900;SDS011;36879;51.416;6.678;2023-02-11T01:39:07;25.75;;;14.23;;
50900;SDS011;36879;51.416;6.678;2023-02-11T01:41:33;26.20;;;13.63;;
50900;SDS011;36879;51.416;6.678;2023-02-11T01:46:44;31.48;;;15.00;;
50900;SDS011;36879;51.416;6.678;2023-02-11T01:49:11;27.88;;;15.07;;
50900;SDS011;36879;51.416;6.678;2023-02-11T01:51:41;27.02;;;13.70;;
50900;SDS011;36879;51.416;6.678;2023-02-11T01:54:09;25.42;;;13.52;;
50900;SDS011;36879;51.416;6.678;2023-02-11T01:56:55;22.10;;;13.80;;
50900;SDS011;36879;51.416;6.678;2023-02-11T01:59:47;32.50;;;14.85;;
50900;SDS011;36879;51.416;6.678;2023-02-11T02:02:16;31.23;;;13.40;;
50900;SDS011;36879;51.416;6.678;2023-02-11T02:05:07;33.72;;;14.43;;
50900;SDS011;36879;51.416;6.678;2023-02-11T02:12:23;30.90;;;15.35;;
50900;SDS011;36879;51.416;6.678;2023-02-11T02:14:49;36.42;;;14.48;;
50900;SDS011;36879;51.416;6.678;2023-02-11T02:17:25;24.45;;;12.60;;
50900;SDS011;36879;51.416;6.678;2023-02-11T02:22:59;19.35;;;12.05;;
50900;SDS011;36879;51.416;6.678;2023-02-11T02:25:35;21.23;;;11.48;;
50900;SDS011;36879;51.416;6.678;2023-02-11T02:30:52;26.30;;;13.35;;
50900;SDS011;36879;51.416;6.678;2023-02-11T02:43:27;21.73;;;11.98;;
50900;SDS011;36879;51.416;6.678;2023-02-11T02:45:54;32.35;;;12.63;;
50900;SDS011;36879;51.416;6.678;2023-02-11T02:48:30;26.80;;;12.23;;
50900;SDS011;36879;51.416;6.678;2023-02-11T02:51:09;26.83;;;11.57;;
50900;SDS011;36879;51.416;6.678;2023-02-11T02:58:44;20.25;;;11.27;;
50900;SDS011;36879;51.416;6.678;2023-02-11T03:06:14;23.38;;;11.45;;
50900;SDS011;36879;51.416;6.678;2023-02-11T03:08:44;20.33;;;10.85;;
50900;SDS011;36879;51.416;6.678;2023-02-11T03:11:10;19.42;;;11.23;;
50900;SDS011;36879;51.416;6.678;2023-02-11T03:13:37;23.80;;;11.25;;
50900;SDS011;36879;51.416;6.678;2023-02-11T03:16:08;25.13;;;11.77;;
50900;SDS011;36879;51.416;6.678;2023-02-11T03:18:34;21.92;;;12.18;;
50900;SDS011;36879;51.416;6.678;2023-02-11T03:21:01;19.38;;;11.13;;
50900;SDS011;36879;51.416;6.678;2023-02-11T03:23:29;19.73;;;10.63;;
50900;SDS011;36879;51.416;6.678;2023-02-11T03:25:58;26.38;;;11.60;;
50900;SDS011;36879;51.416;6.678;2023-02-11T03:31:16;22.98;;;12.10;;
50900;SDS011;36879;51.416;6.678;2023-02-11T03:33:41;24.58;;;12.32;;
50900;SDS011;36879;51.416;6.678;2023-02-11T03:36:11;20.90;;;11.77;;
50900;SDS011;36879;51.416;6.678;2023-02-11T03:38:42;21.05;;;11.23;;
50900;SDS011;36879;51.416;6.678;2023-02-11T03:41:09;22.55;;;11.18;;
50900;SDS011;36879;51.416;6.678;2023-02-11T03:43:45;28.75;;;11.30;;
50900;SDS011;36879;51.416;6.678;2023-02-11T03:46:13;24.73;;;12.10;;
50900;SDS011;36879;51.416;6.678;2023-02-11T03:48:42;24.30;;;11.77;;
50900;SDS011;36879;51.416;6.678;2023-02-11T03:51:10;21.42;;;11.27;;
50900;SDS011;36879;51.416;6.678;2023-02-11T03:53:37;28.65;;;11.75;;
50900;SDS011;36879;51.416;6.678;2023-02-11T03:56:05;24.65;;;12.80;;
50900;SDS011;36879;51.416;6.678;2023-02-11T03:58:32;31.77;;;12.48;;
50900;SDS011;36879;51.416;6.678;2023-02-11T04:00:58;28.25;;;12.70;;
50900;SDS011;36879;51.416;6.678;2023-02-11T04:03:26;25.25;;;12.40;;
50900;SDS011;36879;51.416;6.678;2023-02-11T04:05:52;23.25;;;13.40;;
50900;SDS011;36879;51.416;6.678;2023-02-11T04:08:18;22.88;;;12.00;;
50900;SDS011;36879;51.416;6.678;2023-02-11T04:10:44;25.17;;;14.05;;
50900;SDS011;36879;51.416;6.678;2023-02-11T04:13:10;22.77;;;13.20;;
50900;SDS011;36879;51.416;6.678;2023-02-11T04:21:26;22.95;;;12.75;;
50900;SDS011;36879;51.416;6.678;2023-02-11T04:23:52;29.80;;;15.27;;
50900;SDS011;36879;51.416;6.678;2023-02-11T04:26:18;29.95;;;15.23;;
50900;SDS011;36879;51.416;6.678;2023-02-11T04:28:44;32.38;;;14.98;;
50900;SDS011;36879;51.416;6.678;2023-02-11T04:31:10;29.27;;;13.88;;
50900;SDS011;36879;51.416;6.678;2023-02-11T04:33:36;25.27;;;12.77;;
50900;SDS011;36879;51.416;6.678;2023-02-11T04:36:02;28.30;;;14.68;;
50900;SDS011;36879;51.416;6.678;2023-02-11T04:38:28;33.90;;;15.05;;
50900;SDS011;36879;51.416;6.678;2023-02-11T04:40:56;32.60;;;14.95;;
50900;SDS011;36879;51.416;6.678;2023-02-11T04:43:24;31.00;;;13.93;;
50900;SDS011;36879;51.416;6.678;2023-02-11T04:45:50;28.65;;;14.57;;
50900;SDS011;36879;51.416;6.678;2023-02-11T04:48:16;25.15;;;12.48;;
50900;SDS011;36879;51.416;6.678;2023-02-11T04:50:42;27.20;;;14.88;;
50900;SDS011;36879;51.416;6.678;2023-02-11T04:53:08;25.48;;;14.02;;
50900;SDS011;36879;51.416;6.678;2023-02-11T04:55:34;29.65;;;14.00;;
50900;SDS011;36879;51.416;6.678;2023-02-11T04:58:00;36.50;;;14.85;;
50900;SDS011;36879;51.416;6.678;2023-02-11T05:00:26;35.35;;;16.00;;
50900;SDS011;36879;51.416;6.678;2023-02-11T05:02:52;32.63;;;14.75;;
50900;SDS011;36879;51.416;6.678;2023-02-11T05:05:18;29.15;;;14.18;;
50900;SDS011;36879;51.416;6.678;2023-02-11T05:07:44;27.17;;;15.75;;
50900;SDS011;36879;51.416;6.678;2023-02-11T05:10:10;32.33;;;16.58;;
50900;SDS011;36879;51.416;6.678;2023-02-11T05:12:36;36.90;;;17.92;;
50900;SDS011;36879;51.416;6.678;2023-02-11T05:20:04;29.05;;;17.35;;
50900;SDS011;36879;51.416;6.678;2023-02-11T05:22:30;39.92;;;18.38;;
50900;SDS011;36879;51.416;6.678;2023-02-11T05:24:56;38.25;;;20.23;;
50900;SDS011;36879;51.416;6.678;2023-02-11T05:27:22;37.58;;;20.52;;
50900;SDS011;36879;51.416;6.678;2023-02-11T05:29:48;35.65;;;19.98;;
50900;SDS011;36879;51.416;6.678;2023-02-11T05:32:14;44.60;;;21.60;;
50900;SDS011;36879;51.416;6.678;2023-02-11T05:34:41;35.80;;;20.98;;
50900;SDS011;36879;51.416;6.678;2023-02-11T05:37:07;41.00;;;21.55;;
50900;SDS011;36879;51.416;6.678;2023-02-11T05:39:33;35.38;;;20.60;;
50900;SDS011;36879;51.416;6.678;2023-02-11T05:41:59;46.90;;;21.17;;
50900;SDS011;36879;51.416;6.678;2023-02-11T05:44:25;40.83;;;19.83;;
50900;SDS011;36879;51.416;6.678;2023-02-11T05:57:43;42.13;;;20.00;;
50900;SDS011;36879;51.416;6.678;2023-02-11T06:00:09;43.80;;;19.30;;
50900;SDS011;36879;51.416;6.678;2023-02-11T06:02:35;39.20;;;19.08;;
50900;SDS011;36879;51.416;6.678;2023-02-11T06:05:01;38.60;;;18.25;;
50900;SDS011;36879;51.416;6.678;2023-02-11T06:07:27;43.28;;;18.77;;
50900;SDS011;36879;51.416;6.678;2023-02-11T06:09:53;36.75;;;20.33;;
50900;SDS011;36879;51.416;6.678;2023-02-11T06:12:19;35.50;;;17.92;;
50900;SDS011;36879;51.416;6.678;2023-02-11T06:14:45;33.95;;;17.42;;
50900;SDS011;36879;51.416;6.678;2023-02-11T06:17:11;31.35;;;17.85;;
50900;SDS011;36879;51.416;6.678;2023-02-11T06:19:37;38.75;;;17.92;;
50900;SDS011;36879;51.416;6.678;2023-02-11T06:22:03;35.70;;;17.40;;
50900;SDS011;36879;51.416;6.678;2023-02-11T06:24:29;40.80;;;17.10;;
50900;SDS011;36879;51.416;6.678;2023-02-11T06:26:56;38.47;;;17.75;;
50900;SDS011;36879;51.416;6.678;2023-02-11T06:29:22;39.50;;;18.90;;
50900;SDS011;36879;51.416;6.678;2023-02-11T06:31:48;30.15;;;16.23;;
50900;SDS011;36879;51.416;6.678;2023-02-11T06:34:14;45.00;;;18.08;;
50900;SDS011;36879;51.416;6.678;2023-02-11T06:36:40;41.05;;;17.15;;
50900;SDS011;36879;51.416;6.678;2023-02-11T06:39:07;38.75;;;17.25;;
50900;SDS011;36879;51.416;6.678;2023-02-11T06:41:34;34.20;;;16.90;;
50900;SDS011;36879;51.416;6.678;2023-02-11T06:44:00;34.95;;;15.15;;
50900;SDS011;36879;51.416;6.678;2023-02-11T06:46:26;34.75;;;17.08;;
50900;SDS011;36879;51.416;6.678;2023-02-11T06:48:52;36.30;;;18.30;;
50900;SDS011;36879;51.416;6.678;2023-02-11T06:51:18;43.38;;;17.17;;
50900;SDS011;36879;51.416;6.678;2023-02-11T06:53:44;35.80;;;17.20;;
50900;SDS011;36879;51.416;6.678;2023-02-11T06:56:13;42.67;;;17.30;;
50900;SDS011;36879;51.416;6.678;2023-02-11T06:58:40;41.22;;;16.27;;
50900;SDS011;36879;51.416;6.678;2023-02-11T07:01:06;41.25;;;16.10;;
50900;SDS011;36879;51.416;6.678;2023-02-11T07:03:33;35.92;;;17.50;;
50900;SDS011;36879;51.416;6.678;2023-02-11T07:06:00;38.80;;;17.63;;
50900;SDS011;36879;51.416;6.678;2023-02-11T07:08:26;45.28;;;17.08;;
50900;SDS011;36879;51.416;6.678;2023-02-11T07:10:52;36.20;;;16.60;;
50900;SDS011;36879;51.416;6.678;2023-02-11T07:13:18;34.50;;;16.70;;
50900;SDS011;36879;51.416;6.678;2023-02-11T07:15:44;33.53;;;16.25;;
50900;SDS011;36879;51.416;6.678;2023-02-11T07:18:10;39.03;;;16.77;;
50900;SDS011;36879;51.416;6.678;2023-02-11T07:20:36;38.97;;;17.20;;
50900;SDS011;36879;51.416;6.678;2023-02-11T07:23:05;30.13;;;15.88;;
50900;SDS011;36879;51.416;6.678;2023-02-11T07:25:32;33.70;;;14.93;;
50900;SDS011;36879;51.416;6.678;2023-02-11T07:27:58;40.13;;;18.60;;
50900;SDS011;36879;51.416;6.678;2023-02-11T07:30:24;33.95;;;17.58;;
50900;SDS011;36879;51.416;6.678;2023-02-11T07:32:50;32.30;;;16.13;;
50900;SDS011;36879;51.416;6.678;2023-02-11T07:35:16;35.72;;;16.13;;
50900;SDS011;36879;51.416;6.678;2023-02-11T07:37:42;35.97;;;17.08;;
50900;SDS011;36879;51.416;6.678;2023-02-11T07:40:08;34.10;;;16.52;;
50900;SDS011;36879;51.416;6.678;2023-02-11T07:42:35;42.47;;;18.13;;
50900;SDS011;36879;51.416;6.678;2023-02-11T07:45:01;39.08;;;17.60;;
50900;SDS011;36879;51.416;6.678;2023-02-11T07:47:27;44.95;;;18.38;;
50900;SDS011;36879;51.416;6.678;2023-02-11T07:49:53;44.35;;;19.27;;
50900;SDS011;36879;51.416;6.678;2023-02-11T07:52:19;37.33;;;18.13;;
50900;SDS011;36879;51.416;6.678;2023-02-11T07:54:46;43.58;;;16.65;;
50900;SDS011;36879;51.416;6.678;2023-02-11T07:57:13;33.55;;;16.00;;
50900;SDS011;36879;51.416;6.678;2023-02-11T07:59:39;44.10;;;20.25;;
50900;SDS011;36879;51.416;6.678;2023-02-11T08:02:05;49.22;;;18.08;;
50900;SDS011;36879;51.416;6.678;2023-02-11T08:04:31;38.28;;;16.30;;
50900;SDS011;36879;51.416;6.678;2023-02-11T08:06:57;38.58;;;17.17;;
50900;SDS011;36879;51.416;6.678;2023-02-11T08:09:23;41.15;;;16.48;;
50900;SDS011;36879;51.416;6.678;2023-02-11T08:11:49;39.08;;;17.70;;
50900;SDS011;36879;51.416;6.678;2023-02-11T08:14:15;40.38;;;20.48;;
50900;SDS011;36879;51.416;6.678;2023-02-11T08:16:41;42.55;;;18.27;;
50900;SDS011;36879;51.416;6.678;2023-02-11T08:19:09;39.00;;;17.98;;
50900;SDS011;36879;51.416;6.678;2023-02-11T08:21:36;37.03;;;19.02;;
50900;SDS011;36879;51.416;6.678;2023-02-11T08:24:06;43.05;;;18.15;;
50900;SDS011;36879;51.416;6.678;2023-02-11T08:26:33;44.20;;;18.88;;
50900;SDS011;36879;51.416;6.678;2023-02-11T08:28:59;46.40;;;20.83;;
50900;SDS011;36879;51.416;6.678;2023-02-11T08:31:27;46.53;;;19.48;;
50900;SDS011;36879;51.416;6.678;2023-02-11T08:33:54;44.30;;;21.05;;
50900;SDS011;36879;51.416;6.678;2023-02-11T08:36:23;41.20;;;20.67;;
50900;SDS011;36879;51.416;6.678;2023-02-11T08:38:49;40.47;;;20.05;;
50900;SDS011;36879;51.416;6.678;2023-02-11T08:41:15;41.80;;;18.27;;
50900;SDS011;36879;51.416;6.678;2023-02-11T08:43:42;42.55;;;20.30;;
50900;SDS011;36879;51.416;6.678;2023-02-11T08:46:09;42.17;;;19.15;;
50900;SDS011;36879;51.416;6.678;2023-02-11T08:48:36;46.47;;;19.88;;
50900;SDS011;36879;51.416;6.678;2023-02-11T08:51:09;41.28;;;19.98;;
50900;SDS011;36879;51.416;6.678;2023-02-11T08:53:36;38.08;;;18.10;;
50900;SDS011;36879;51.416;6.678;2023-02-11T08:56:02;42.88;;;17.85;;
50900;SDS011;36879;51.416;6.678;2023-02-11T08:58:28;40.38;;;20.02;;
50900;SDS011;36879;51.416;6.678;2023-02-11T09:00:54;38.47;;;17.65;;
50900;SDS011;36879;51.416;6.678;2023-02-11T09:03:20;44.80;;;19.63;;
50900;SDS011;36879;51.416;6.678;2023-02-11T09:05:47;37.97;;;17.33;;
50900;SDS011;36879;51.416;6.678;2023-02-11T09:08:20;35.80;;;18.35;;
50900;SDS011;36879;51.416;6.678;2023-02-11T09:10:46;39.58;;;20.20;;
50900;SDS011;36879;51.416;6.678;2023-02-11T09:13:12;39.03;;;17.35;;
50900;SDS011;36879;51.416;6.678;2023-02-11T09:15:39;38.05;;;18.67;;
50900;SDS011;36879;51.416;6.678;2023-02-11T09:18:04;50.00;;;19.52;;
50900;SDS011;36879;51.416;6.678;2023-02-11T09:20:31;43.97;;;18.02;;
50900;SDS011;36879;51.416;6.678;2023-02-11T09:22:57;43.30;;;18.85;;
50900;SDS011;36879;51.416;6.678;2023-02-11T09:25:24;49.13;;;20.25;;
50900;SDS011;36879;51.416;6.678;2023-02-11T09:27:50;58.97;;;20.15;;
50900;SDS011;36879;51.416;6.678;2023-02-11T09:30:17;40.42;;;19.30;;
50900;SDS011;36879;51.416;6.678;2023-02-11T09:32:43;38.92;;;20.25;;
50900;SDS011;36879;51.416;6.678;2023-02-11T09:35:09;40.67;;;18.25;;
50900;SDS011;36879;51.416;6.678;2023-02-11T09:37:35;45.47;;;20.73;;
50900;SDS011;36879;51.416;6.678;2023-02-11T09:40:01;41.78;;;19.83;;
50900;SDS011;36879;51.416;6.678;2023-02-11T09:44:57;49.40;;;20.63;;
50900;SDS011;36879;51.416;6.678;2023-02-11T09:47:25;44.30;;;18.40;;
50900;SDS011;36879;51.416;6.678;2023-02-11T09:49:56;46.13;;;19.60;;
50900;SDS011;36879;51.416;6.678;2023-02-11T09:54:54;36.80;;;17.75;;
50900;SDS011;36879;51.416;6.678;2023-02-11T09:57:20;43.40;;;18.73;;
50900;SDS011;36879;51.416;6.678;2023-02-11T09:59:46;46.97;;;19.25;;
50900;SDS011;36879;51.416;6.678;2023-02-11T10:02:20;37.92;;;18.13;;
50900;SDS011;36879;51.416;6.678;2023-02-11T10:22:26;47.38;;;18.58;;
50900;SDS011;36879;51.416;6.678;2023-02-11T10:24:53;37.25;;;18.40;;
50900;SDS011;36879;51.416;6.678;2023-02-11T10:27:25;38.00;;;19.80;;
50900;SDS011;36879;51.416;6.678;2023-02-11T10:29:56;42.08;;;18.55;;
50900;SDS011;36879;51.416;6.678;2023-02-11T10:32:32;40.58;;;18.52;;
50900;SDS011;36879;51.416;6.678;2023-02-11T10:35:09;46.08;;;19.95;;
50900;SDS011;36879;51.416;6.678;2023-02-11T10:37:39;43.13;;;19.63;;
50900;SDS011;36879;51.416;6.678;2023-02-11T10:40:05;47.00;;;21.17;;
50900;SDS011;36879;51.416;6.678;2023-02-11T10:42:31;39.95;;;19.83;;
50900;SDS011;36879;51.416;6.678;2023-02-11T10:44:58;46.35;;;20.58;;
50900;SDS011;36879;51.416;6.678;2023-02-11T10:47:27;33.50;;;17.65;;
50900;SDS011;36879;51.416;6.678;2023-02-11T10:49:56;46.90;;;21.58;;
50900;SDS011;36879;51.416;6.678;2023-02-11T10:52:27;39.70;;;19.52;;
50900;SDS011;36879;51.416;6.678;2023-02-11T10:57:20;42.45;;;19.27;;
50900;SDS011;36879;51.416;6.678;2023-02-11T10:59:46;42.33;;;20.60;;
50900;SDS011;36879;51.416;6.678;2023-02-11T11:02:23;46.35;;;20.83;;
50900;SDS011;36879;51.416;6.678;2023-02-11T11:04:50;44.38;;;19.10;;
50900;SDS011;36879;51.416;6.678;2023-02-11T11:07:25;40.53;;;20.70;;
50900;SDS011;36879;51.416;6.678;2023-02-11T11:17:34;47.33;;;22.00;;
50900;SDS011;36879;51.416;6.678;2023-02-11T11:20:13;46.33;;;19.83;;
50900;SDS011;36879;51.416;6.678;2023-02-11T11:22:39;53.10;;;22.55;;
50900;SDS011;36879;51.416;6.678;2023-02-11T11:25:19;42.58;;;19.38;;
50900;SDS011;36879;51.416;6.678;2023-02-11T11:27:47;51.38;;;21.80;;
50900;SDS011;36879;51.416;6.678;2023-02-11T11:30:14;42.85;;;21.25;;
50900;SDS011;36879;51.416;6.678;2023-02-11T11:32:41;49.78;;;21.83;;
50900;SDS011;36879;51.416;6.678;2023-02-11T11:35:19;49.70;;;20.98;;
50900;SDS011;36879;51.416;6.678;2023-02-11T11:37:50;51.88;;;21.88;;
50900;SDS011;36879;51.416;6.678;2023-02-11T11:42:46;47.22;;;20.95;;
50900;SDS011;36879;51.416;6.678;2023-02-11T11:45:26;43.85;;;19.60;;
50900;SDS011;36879;51.416;6.678;2023-02-11T11:47:59;55.72;;;21.45;;
50900;SDS011;36879;51.416;6.678;2023-02-11T11:55:21;52.92;;;22.48;;
50900;SDS011;36879;51.416;6.678;2023-02-11T11:57:47;40.72;;;20.42;;
50900;SDS011;36879;51.416;6.678;2023-02-11T12:00:14;51.75;;;21.45;;
50900;SDS011;36879;51.416;6.678;2023-02-11T12:05:21;36.08;;;20.13;;
50900;SDS011;36879;51.416;6.678;2023-02-11T12:28:14;44.70;;;21.23;;
50900;SDS011;36879;51.416;6.678;2023-02-11T12:41:48;49.42;;;22.23;;
50900;SDS011;36879;51.416;6.678;2023-02-11T12:47:08;44.72;;;20.80;;
50900;SDS011;36879;51.416;6.678;2023-02-11T12:54:55;44.50;;;22.02;;
50900;SDS011;36879;51.416;6.678;2023-02-11T12:57:24;44.85;;;21.65;;
50900;SDS011;36879;51.416;6.678;2023-02-11T13:00:06;47.88;;;23.10;;
50900;SDS011;36879;51.416;6.678;2023-02-11T13:05:29;43.08;;;21.15;;
50900;SDS011;36879;51.416;6.678;2023-02-11T13:08:01;54.22;;;23.70;;
50900;SDS011;36879;51.416;6.678;2023-02-11T13:12:55;47.10;;;21.15;;
50900;SDS011;36879;51.416;6.678;2023-02-11T13:15:41;43.30;;;21.63;;
50900;SDS011;36879;51.416;6.678;2023-02-11T13:31:39;43.28;;;22.25;;
50900;SDS011;36879;51.416;6.678;2023-02-11T13:40:04;46.25;;;22.08;;
50900;SDS011;36879;51.416;6.678;2023-02-11T13:42:31;46.97;;;23.27;;
50900;SDS011;36879;51.416;6.678;2023-02-11T13:44:58;43.63;;;22.67;;
50900;SDS011;36879;51.416;6.678;2023-02-11T13:47:25;42.03;;;22.23;;
50900;SDS011;36879;51.416;6.678;2023-02-11T13:49:54;44.80;;;22.70;;
50900;SDS011;36879;51.416;6.678;2023-02-11T13:52:24;48.30;;;22.23;;
50900;SDS011;36879;51.416;6.678;2023-02-11T13:54:52;41.90;;;21.08;;
50900;SDS011;36879;51.416;6.678;2023-02-11T13:59:46;48.45;;;23.02;;
50900;SDS011;36879;51.416;6.678;2023-02-11T14:10:49;54.17;;;24.58;;
50900;SDS011;36879;51.416;6.678;2023-02-11T14:13:34;53.50;;;22.70;;
50900;SDS011;36879;51.416;6.678;2023-02-11T14:16:08;45.47;;;22.35;;
50900;SDS011;36879;51.416;6.678;2023-02-11T14:18:56;45.35;;;22.63;;
50900;SDS011;36879;51.416;6.678;2023-02-11T14:23:50;48.40;;;22.77;;
50900;SDS011;36879;51.416;6.678;2023-02-11T14:31:27;47.95;;;22.88;;
50900;SDS011;36879;51.416;6.678;2023-02-11T14:34:18;48.00;;;21.48;;
50900;SDS011;36879;51.416;6.678;2023-02-11T14:36:52;44.90;;;21.92;;
50900;SDS011;36879;51.416;6.678;2023-02-11T14:39:36;42.22;;;21.08;;
50900;SDS011;36879;51.416;6.678;2023-02-11T14:42:06;37.83;;;21.60;;
50900;SDS011;36879;51.416;6.678;2023-02-11T14:44:39;49.53;;;21.90;;
50900;SDS011;36879;51.416;6.678;2023-02-11T14:47:06;48.58;;;21.67;;
50900;SDS011;36879;51.416;6.678;2023-02-11T14:49:32;39.70;;;21.10;;
50900;SDS011;36879;51.416;6.678;2023-02-11T14:52:03;47.28;;;22.02;;
50900;SDS011;36879;51.416;6.678;2023-02-11T14:54:30;44.47;;;21.25;;
50900;SDS011;36879;51.416;6.678;2023-02-11T14:57:10;40.38;;;20.20;;
50900;SDS011;36879;51.416;6.678;2023-02-11T14:59:36;41.40;;;22.08;;
50900;SDS011;36879;51.416;6.678;2023-02-11T15:02:02;45.53;;;20.42;;
50900;SDS011;36879;51.416;6.678;2023-02-11T15:04:29;39.80;;;21.55;;
50900;SDS011;36879;51.416;6.678;2023-02-11T15:06:56;39.00;;;19.45;;
50900;SDS011;36879;51.416;6.678;2023-02-11T15:09:43;45.83;;;20.42;;
50900;SDS011;36879;51.416;6.678;2023-02-11T15:12:14;38.70;;;20.77;;
50900;SDS011;36879;51.416;6.678;2023-02-11T15:14:43;43.38;;;20.83;;
50900;SDS011;36879;51.416;6.678;2023-02-11T15:17:11;47.33;;;21.50;;
50900;SDS011;36879;51.416;6.678;2023-02-11T15:19:39;44.92;;;22.05;;
50900;SDS011;36879;51.416;6.678;2023-02-11T15:22:07;48.60;;;22.90;;
50900;SDS011;36879;51.416;6.678;2023-02-11T15:24:42;46.35;;;22.10;;
50900;SDS011;36879;51.416;6.678;2023-02-11T15:27:09;40.83;;;20.95;;
50900;SDS011;36879;51.416;6.678;2023-02-11T15:29:43;44.08;;;21.65;;
50900;SDS011;36879;51.416;6.678;2023-02-11T15:32:20;44.85;;;21.63;;
50900;SDS011;36879;51.416;6.678;2023-02-11T15:34:46;52.78;;;24.00;;
50900;SDS011;36879;51.416;6.678;2023-02-11T15:37:19;45.38;;;21.90;;
50900;SDS011;36879;51.416;6.678;2023-02-11T15:39:45;41.67;;;22.42;;
50900;SDS011;36879;51.416;6.678;2023-02-11T15:42:29;46.58;;;20.50;;
50900;SDS011;36879;51.416;6.678;2023-02-11T15:47:41;46.72;;;23.33;;
50900;SDS011;36879;51.416;6.678;2023-02-11T15:50:21;39.65;;;21.67;;
50900;SDS011;36879;51.416;6.678;2023-02-11T15:52:48;45.65;;;20.25;;
50900;SDS011;36879;51.416;6.678;2023-02-11T15:55:15;52.58;;;22.35;;
50900;SDS011;36879;51.416;6.678;2023-02-11T15:57:44;53.97;;;22.63;;
50900;SDS011;36879;51.416;6.678;2023-02-11T16:00:18;49.50;;;21.70;;
50900;SDS011;36879;51.416;6.678;2023-02-11T16:02:45;50.17;;;22.83;;
50900;SDS011;36879;51.416;6.678;2023-02-11T16:08:19;40.35;;;21.08;;
50900;SDS011;36879;51.416;6.678;2023-02-11T16:13:44;45.50;;;23.70;;
50900;SDS011;36879;51.416;6.678;2023-02-11T16:16:17;44.47;;;22.27;;
50900;SDS011;36879;51.416;6.678;2023-02-11T16:18:46;45.92;;;23.40;;
50900;SDS011;36879;51.416;6.678;2023-02-11T16:21:15;49.70;;;23.73;;
50900;SDS011;36879;51.416;6.678;2023-02-11T16:23:41;48.25;;;23.42;;
50900;SDS011;36879;51.416;6.678;2023-02-11T16:26:21;52.97;;;23.98;;
50900;SDS011;36879;51.416;6.678;2023-02-11T16:28:49;48.03;;;23.98;;
50900;SDS011;36879;51.416;6.678;2023-02-11T16:31:15;53.50;;;24.17;;
50900;SDS011;36879;51.416;6.678;2023-02-11T16:33:42;47.53;;;23.98;;
50900;SDS011;36879;51.416;6.678;2023-02-11T16:36:11;52.08;;;24.88;;
50900;SDS011;36879;51.416;6.678;2023-02-11T16:38:37;53.58;;;26.40;;
50900;SDS011;36879;51.416;6.678;2023-02-11T16:41:03;51.67;;;25.95;;
50900;SDS011;36879;51.416;6.678;2023-02-11T16:43:29;54.78;;;27.17;;
50900;SDS011;36879;51.416;6.678;2023-02-11T16:45:56;54.38;;;25.73;;
50900;SDS011;36879;51.416;6.678;2023-02-11T16:48:22;54.47;;;26.85;;
50900;SDS011;36879;51.416;6.678;2023-02-11T16:50:49;52.90;;;26.48;;
50900;SDS011;36879;51.416;6.678;2023-02-11T16:53:17;56.10;;;24.63;;
50900;SDS011;36879;51.416;6.678;2023-02-11T16:55:43;51.30;;;26.33;;
50900;SDS011;36879;51.416;6.678;2023-02-11T16:58:09;51.53;;;27.25;;
50900;SDS011;36879;51.416;6.678;2023-02-11T17:00:35;52.25;;;24.45;;
50900;SDS011;36879;51.416;6.678;2023-02-11T17:03:03;47.47;;;23.60;;
50900;SDS011;36879;51.416;6.678;2023-02-11T17:05:30;51.20;;;25.83;;
50900;SDS011;36879;51.416;6.678;2023-02-11T17:07:56;60.95;;;26.10;;
50900;SDS011;36879;51.416;6.678;2023-02-11T17:10:22;60.72;;;27.90;;
50900;SDS011;36879;51.416;6.678;2023-02-11T17:12:48;52.03;;;24.38;;
50900;SDS011;36879;51.416;6.678;2023-02-11T17:15:15;53.20;;;25.15;;
50900;SDS011;36879;51.416;6.678;2023-02-11T17:17:41;58.75;;;27.38;;
50900;SDS011;36879;51.416;6.678;2023-02-11T17:20:09;48.22;;;25.48;;
50900;SDS011;36879;51.416;6.678;2023-02-11T17:22:35;51.08;;;27.45;;
50900;SDS011;36879;51.416;6.678;2023-02-11T17:25:02;61.70;;;27.63;;
50900;SDS011;36879;51.416;6.678;2023-02-11T17:27:28;54.45;;;27.42;;
50900;SDS011;36879;51.416;6.678;2023-02-11T17:29:54;52.65;;;26.65;;
50900;SDS011;36879;51.416;6.678;2023-02-11T17:32:20;59.40;;;28.13;;
50900;SDS011;36879;51.416;6.678;2023-02-11T17:34:46;58.70;;;27.70;;
50900;SDS011;36879;51.416;6.678;2023-02-11T17:37:11;53.35;;;26.02;;
50900;SDS011;36879;51.416;6.678;2023-02-11T17:39:38;57.35;;;27.83;;